createdAt,value
2018-04-06T00:00:56.808Z,0.00
2018-04-06T00:01:56.792Z,0.00
2018-04-06T00:02:56.777Z,0.00
2018-04-06T00:03:56.761Z,0.00
2018-04-06T00:04:56.746Z,0.00
2018-04-06T00:05:56.730Z,0.00
2018-04-06T00:06:56.723Z,0.00
2018-04-06T00:07:56.707Z,0.00
2018-04-06T00:08:56.684Z,0.00
2018-04-06T00:09:56.668Z,0.00
2018-04-06T00:10:56.652Z,0.00
2018-04-06T00:11:56.640Z,0.00
2018-04-06T00:12:56.622Z,0.00
2018-04-06T00:13:56.620Z,0.00
2018-04-06T00:14:56.599Z,0.00
2018-04-06T00:15:56.575Z,0.00
2018-04-06T00:16:56.560Z,0.00
2018-04-06T00:17:56.544Z,0.00
2018-04-06T00:18:56.531Z,0.00
2018-04-06T00:19:56.514Z,0.00
2018-04-06T00:20:56.498Z,0.00
2018-04-06T00:21:56.482Z,0.00
2018-04-06T00:22:56.467Z,0.00
2018-04-06T00:23:56.452Z,0.00
2018-04-06T00:24:56.440Z,0.00
2018-04-06T00:25:56.422Z,0.00
2018-04-06T00:26:56.404Z,0.00
2018-04-06T00:27:56.395Z,0.00
2018-04-06T00:28:56.378Z,0.00
2018-04-06T00:29:56.365Z,0.00
2018-04-06T00:30:56.342Z,0.00
2018-04-06T00:31:56.349Z,0.00
2018-04-06T00:32:56.312Z,0.00
2018-04-06T00:33:56.295Z,0.00
2018-04-06T00:34:56.280Z,0.00
2018-04-06T00:35:56.281Z,0.00
2018-04-06T00:36:56.253Z,0.00
2018-04-06T00:37:56.264Z,0.00
2018-04-06T00:38:56.218Z,0.00
2018-04-06T00:39:56.205Z,0.00
2018-04-06T00:40:56.190Z,0.00
2018-04-06T00:41:56.197Z,0.00
2018-04-06T00:42:56.155Z,0.00
2018-04-06T00:43:56.139Z,0.00
2018-04-06T00:44:56.124Z,0.00
2018-04-06T00:45:56.107Z,0.00
2018-04-06T00:46:56.092Z,0.00
2018-04-06T00:47:56.077Z,0.00
2018-04-06T00:48:56.065Z,0.00
2018-04-06T00:49:56.044Z,0.00
2018-04-06T00:50:56.042Z,0.00
2018-04-06T00:51:56.664Z,0.00
2018-04-06T00:52:56.000Z,0.00
2018-04-06T00:53:55.982Z,0.00
2018-04-06T00:54:55.966Z,0.00
2018-04-06T00:55:55.950Z,0.00
2018-04-06T00:56:55.935Z,0.00
2018-04-06T00:57:55.930Z,0.00
2018-04-06T00:58:55.914Z,0.00
2018-04-06T00:59:55.888Z,0.00
2018-04-06T01:00:55.873Z,0.00
2018-04-06T01:01:55.856Z,0.00
2018-04-06T01:02:55.843Z,0.00
2018-04-06T01:03:55.825Z,0.00
2018-04-06T01:04:55.813Z,0.00
2018-04-06T01:05:55.794Z,0.00
2018-04-06T01:06:55.778Z,0.00
2018-04-06T01:07:55.778Z,0.00
2018-04-06T01:08:55.747Z,0.00
2018-04-06T01:09:55.831Z,0.00
2018-04-06T01:10:55.716Z,0.00
2018-04-06T01:11:55.704Z,0.00
2018-04-06T01:12:55.700Z,0.00
2018-04-06T01:13:55.680Z,0.00
2018-04-06T01:14:55.653Z,0.00
2018-04-06T01:15:55.640Z,0.00
2018-04-06T01:16:55.626Z,0.00
2018-04-06T01:17:55.606Z,0.00
2018-04-06T01:18:55.591Z,0.00
2018-04-06T01:19:55.582Z,0.00
2018-04-06T01:20:55.566Z,0.00
2018-04-06T01:21:55.552Z,0.00
2018-04-06T01:22:55.528Z,0.00
2018-04-06T01:23:55.514Z,0.00
2018-04-06T01:24:55.498Z,0.00
2018-04-06T01:25:55.482Z,0.00
2018-04-06T01:26:55.466Z,0.00
2018-04-06T01:27:55.550Z,0.00
2018-04-06T01:28:55.435Z,0.00
2018-04-06T01:29:55.419Z,0.00
2018-04-06T01:30:55.403Z,0.00
2018-04-06T01:31:55.391Z,0.00
2018-04-06T01:32:55.374Z,0.00
2018-04-06T01:33:55.358Z,0.00
2018-04-06T01:34:55.353Z,0.00
2018-04-06T01:35:55.363Z,0.00
2018-04-06T01:36:55.312Z,0.00
2018-04-06T01:37:55.296Z,0.00
2018-04-06T01:38:55.296Z,0.00
2018-04-06T01:39:55.272Z,0.00
2018-04-06T01:40:55.251Z,0.00
2018-04-06T01:41:55.235Z,0.00
2018-04-06T01:42:55.227Z,0.00
2018-04-06T01:43:55.204Z,0.00
2018-04-06T01:44:55.210Z,0.00
2018-04-06T01:45:55.175Z,0.00
2018-04-06T01:46:55.158Z,0.00
2018-04-06T01:47:55.142Z,0.00
2018-04-06T01:48:55.127Z,0.00
2018-04-06T01:49:55.111Z,0.00
2018-04-06T01:50:55.096Z,0.00
2018-04-06T01:51:55.080Z,0.00
2018-04-06T01:52:55.114Z,0.00
2018-04-06T01:53:55.049Z,0.00
2018-04-06T01:54:55.038Z,0.00
2018-04-06T01:55:55.034Z,0.00
2018-04-06T01:56:55.020Z,0.00
2018-04-06T01:57:54.990Z,0.00
2018-04-06T01:58:54.972Z,0.00
2018-04-06T01:59:55.011Z,0.00
2018-04-06T02:00:54.942Z,0.00
2018-04-06T02:01:54.925Z,0.00
2018-04-06T02:02:54.911Z,0.00
2018-04-06T02:03:54.956Z,0.00
2018-04-06T02:04:54.880Z,0.00
2018-04-06T02:05:54.863Z,0.00
2018-04-06T02:06:54.853Z,0.00
2018-04-06T02:07:54.837Z,0.00
2018-04-06T02:08:54.818Z,0.00
2018-04-06T02:09:54.802Z,0.00
2018-04-06T02:10:54.789Z,0.00
2018-04-06T02:11:54.772Z,0.00
2018-04-06T02:12:54.761Z,0.00
2018-04-06T02:13:54.742Z,0.00
2018-04-06T02:14:54.726Z,0.00
2018-04-06T02:15:54.712Z,0.00
2018-04-06T02:16:54.696Z,0.00
2018-04-06T02:17:54.692Z,0.00
2018-04-06T02:18:54.671Z,0.00
2018-04-06T02:19:54.684Z,0.00
2018-04-06T02:20:54.636Z,0.00
2018-04-06T02:21:54.620Z,0.00
2018-04-06T02:22:54.611Z,0.00
2018-04-06T02:23:54.590Z,0.00
2018-04-06T02:24:54.626Z,0.00
2018-04-06T02:25:54.574Z,0.00
2018-04-06T02:26:54.561Z,0.00
2018-04-06T02:27:54.529Z,0.00
2018-04-06T02:28:54.525Z,0.00
2018-04-06T02:29:54.498Z,0.00
2018-04-06T02:30:54.484Z,0.00
2018-04-06T02:31:54.469Z,0.00
2018-04-06T02:32:54.454Z,0.00
2018-04-06T02:33:54.437Z,0.00
2018-04-06T02:34:54.422Z,0.00
2018-04-06T02:35:54.410Z,0.00
2018-04-06T02:36:54.393Z,0.00
2018-04-06T02:37:54.378Z,0.00
2018-04-06T02:38:54.374Z,0.00
2018-04-06T02:39:54.447Z,0.00
2018-04-06T02:40:54.335Z,0.00
2018-04-06T02:41:54.316Z,0.00
2018-04-06T02:42:54.306Z,0.00
2018-04-06T02:43:54.285Z,0.00
2018-04-06T02:44:54.271Z,0.00
2018-04-06T02:45:54.269Z,0.00
2018-04-06T02:46:54.249Z,0.00
2018-04-06T02:47:54.224Z,0.00
2018-04-06T02:48:54.209Z,0.00
2018-04-06T02:49:54.194Z,0.00
2018-04-06T02:50:54.178Z,0.00
2018-04-06T02:51:54.164Z,0.00
2018-04-06T02:52:54.148Z,0.00
2018-04-06T02:53:54.132Z,0.00
2018-04-06T02:54:54.117Z,0.00
2018-04-06T02:55:54.101Z,0.00
2018-04-06T02:56:54.087Z,0.00
2018-04-06T02:57:54.070Z,0.00
2018-04-06T02:58:54.055Z,0.00
2018-04-06T02:59:54.053Z,0.00
2018-04-06T03:00:54.055Z,0.00
2018-04-06T03:01:54.015Z,0.00
2018-04-06T03:02:53.994Z,0.00
2018-04-06T03:03:54.000Z,0.00
2018-04-06T03:04:53.963Z,0.00
2018-04-06T03:05:53.946Z,0.00
2018-04-06T03:06:53.931Z,0.00
2018-04-06T03:07:53.927Z,0.00
2018-04-06T03:08:53.936Z,0.00
2018-04-06T03:09:53.885Z,0.00
2018-04-06T03:10:53.870Z,0.00
2018-04-06T03:11:53.862Z,0.00
2018-04-06T03:12:53.839Z,0.00
2018-04-06T03:13:53.827Z,0.00
2018-04-06T03:14:53.813Z,0.00
2018-04-06T03:15:53.794Z,0.00
2018-04-06T03:16:53.780Z,0.00
2018-04-06T03:17:53.762Z,0.00
2018-04-06T03:18:53.759Z,0.00
2018-04-06T03:19:53.731Z,0.00
2018-04-06T03:20:53.717Z,0.00
2018-04-06T03:21:53.711Z,0.00
2018-04-06T03:22:53.693Z,0.00
2018-04-06T03:23:53.670Z,0.00
2018-04-06T03:24:53.654Z,0.00
2018-04-06T03:25:53.637Z,0.00
2018-04-06T03:26:53.622Z,0.00
2018-04-06T03:27:53.606Z,0.00
2018-04-06T03:28:53.592Z,0.00
2018-04-06T03:29:53.584Z,0.00
2018-04-06T03:30:53.561Z,0.00
2018-04-06T03:31:53.544Z,0.00
2018-04-06T03:32:53.528Z,0.00
2018-04-06T03:33:53.512Z,0.00
2018-04-06T03:34:53.496Z,0.00
2018-04-06T03:35:53.482Z,0.00
2018-04-06T03:36:53.467Z,0.00
2018-04-06T03:37:53.450Z,0.00
2018-04-06T03:38:53.434Z,0.00
2018-04-06T03:39:53.419Z,0.00
2018-04-06T03:40:53.403Z,0.00
2018-04-06T03:41:53.387Z,0.00
2018-04-06T03:42:53.372Z,0.00
2018-04-06T03:43:53.355Z,0.00
2018-04-06T03:44:53.353Z,0.00
2018-04-06T03:45:53.328Z,0.00
2018-04-06T03:46:53.335Z,0.00
2018-04-06T03:47:53.293Z,0.00
2018-04-06T03:48:53.278Z,0.00
2018-04-06T03:49:53.262Z,0.00
2018-04-06T03:50:53.245Z,0.00
2018-04-06T03:51:53.241Z,0.00
2018-04-06T03:52:53.253Z,0.00
2018-04-06T03:53:53.202Z,0.00
2018-04-06T03:54:53.183Z,0.00
2018-04-06T03:55:53.176Z,0.00
2018-04-06T03:56:53.152Z,0.00
2018-04-06T03:57:53.136Z,0.00
2018-04-06T03:58:53.120Z,0.00
2018-04-06T03:59:53.105Z,0.00
2018-04-06T04:00:53.089Z,0.00
2018-04-06T04:01:53.074Z,0.00
2018-04-06T04:02:53.058Z,0.00
2018-04-06T04:03:53.042Z,0.00
2018-04-06T04:04:53.028Z,0.00
2018-04-06T04:05:53.016Z,0.00
2018-04-06T04:06:53.006Z,0.00
2018-04-06T04:07:52.992Z,0.00
2018-04-06T04:08:52.965Z,0.00
2018-04-06T04:09:52.950Z,0.00
2018-04-06T04:10:52.937Z,0.00
2018-04-06T04:11:52.922Z,0.00
2018-04-06T04:12:52.903Z,0.00
2018-04-06T04:13:52.904Z,0.00
2018-04-06T04:14:52.877Z,0.00
2018-04-06T04:15:52.856Z,0.00
2018-04-06T04:16:52.841Z,0.00
2018-04-06T04:17:52.825Z,0.00
2018-04-06T04:18:52.813Z,0.00
2018-04-06T04:19:52.794Z,0.00
2018-04-06T04:20:52.780Z,0.00
2018-04-06T04:21:52.763Z,0.00
2018-04-06T04:22:52.747Z,0.00
2018-04-06T04:23:52.731Z,0.00
2018-04-06T04:24:52.716Z,0.00
2018-04-06T04:25:52.701Z,0.00
2018-04-06T04:26:52.685Z,4.00
2018-04-06T04:27:52.769Z,4.00
2018-04-06T04:28:52.670Z,0.00
2018-04-06T04:29:52.651Z,0.00
2018-04-06T04:30:52.664Z,4.00
2018-04-06T04:31:52.608Z,4.00
2018-04-06T04:32:52.595Z,4.00
2018-04-06T04:33:52.575Z,4.00
2018-04-06T04:34:52.567Z,4.00
2018-04-06T04:35:52.548Z,8.00
2018-04-06T04:36:52.541Z,8.00
2018-04-06T04:37:52.512Z,8.00
2018-04-06T04:38:52.498Z,8.00
2018-04-06T04:39:52.528Z,12.00
2018-04-06T04:40:52.489Z,12.00
2018-04-06T04:41:52.485Z,16.00
2018-04-06T04:42:52.492Z,20.00
2018-04-06T04:43:52.870Z,20.00
2018-04-06T04:44:52.448Z,24.00
2018-04-06T04:45:52.423Z,28.00
2018-04-06T04:46:52.401Z,32.00
2018-04-06T04:47:52.375Z,40.00
2018-04-06T04:48:52.341Z,44.00
2018-04-06T04:49:52.324Z,52.00
2018-04-06T04:50:52.309Z,56.00
2018-04-06T04:51:52.294Z,68.00
2018-04-06T04:52:52.278Z,76.00
2018-04-06T04:53:52.262Z,88.00
2018-04-06T04:54:52.555Z,96.00
2018-04-06T04:55:52.361Z,108.00
2018-04-06T04:57:52.499Z,132.00
2018-04-06T05:00:52.442Z,180.00
2018-04-06T05:01:52.205Z,200.00
2018-04-06T05:02:52.188Z,216.00
2018-04-06T05:03:52.249Z,236.00
2018-04-06T05:04:52.147Z,256.00
2018-04-06T05:05:52.157Z,276.00
2018-04-06T05:06:52.154Z,300.00
2018-04-06T05:07:52.124Z,320.00
2018-04-06T05:08:52.284Z,348.00
2018-04-06T05:09:52.073Z,372.00
2018-04-06T05:10:52.069Z,400.00
2018-04-06T05:11:52.253Z,424.00
2018-04-06T05:12:52.039Z,456.00
2018-04-06T05:13:52.021Z,484.00
2018-04-06T05:14:52.019Z,512.00
2018-04-06T05:15:51.995Z,540.00
2018-04-06T05:16:51.964Z,572.00
2018-04-06T05:17:51.947Z,600.00
2018-04-06T05:18:51.909Z,628.00
2018-04-06T05:19:51.861Z,660.00
2018-04-06T05:20:51.845Z,696.00
2018-04-06T05:21:51.974Z,740.00
2018-04-06T05:22:51.874Z,792.00
2018-04-06T05:24:51.839Z,888.00
2018-04-06T05:25:51.864Z,928.00
2018-04-06T05:26:51.867Z,968.00
2018-04-06T05:28:51.742Z,1060.00
2018-04-06T05:29:51.756Z,1104.00
2018-04-06T05:30:51.781Z,1156.00
2018-04-06T05:31:51.774Z,1204.00
2018-04-06T05:32:52.360Z,1264.00
2018-04-06T05:33:51.726Z,1328.00
2018-04-06T05:34:51.708Z,1404.00
2018-04-06T05:35:51.618Z,1468.00
2018-04-06T05:36:51.652Z,1516.00
2018-04-06T05:37:51.644Z,1568.00
2018-04-06T05:38:51.684Z,1616.00
2018-04-06T05:39:51.646Z,1676.00
2018-04-06T05:40:51.581Z,1744.00
2018-04-06T05:41:51.590Z,1812.00
2018-04-06T05:42:51.920Z,1868.00
2018-04-06T05:44:51.565Z,1996.00
2018-04-06T05:45:51.516Z,2060.00
2018-04-06T05:46:51.511Z,2104.00
2018-04-06T05:47:51.516Z,2140.00
2018-04-06T05:48:51.498Z,2196.00
2018-04-06T05:49:51.415Z,2260.00
2018-04-06T05:50:51.440Z,2316.00
2018-04-06T05:51:51.391Z,2364.00
2018-04-06T05:52:51.601Z,2396.00
2018-04-06T05:53:51.430Z,2432.00
2018-04-06T05:54:51.390Z,2488.00
2018-04-06T05:55:51.397Z,2544.00
2018-04-06T05:56:51.408Z,2600.00
2018-04-06T05:57:51.548Z,2640.00
2018-04-06T05:59:51.284Z,2740.00
2018-04-06T06:00:51.305Z,2796.00
2018-04-06T06:01:51.268Z,2832.00
2018-04-06T06:02:51.532Z,2844.00
2018-04-06T06:04:51.238Z,2924.00
2018-04-06T06:05:51.204Z,2976.00
2018-04-06T06:06:51.192Z,3020.00
2018-04-06T06:07:51.192Z,3068.00
2018-04-06T06:08:51.371Z,3128.00
2018-04-06T06:09:51.208Z,3192.00
2018-04-06T06:10:51.140Z,3248.00
2018-04-06T06:11:51.131Z,3316.00
2018-04-06T06:12:51.113Z,3356.00
2018-04-06T06:13:51.133Z,3384.00
2018-04-06T06:15:51.060Z,3516.00
2018-04-06T06:16:51.025Z,3568.00
2018-04-06T06:17:51.005Z,3600.00
2018-04-06T06:18:50.961Z,3636.00
2018-04-06T06:19:51.001Z,3684.00
2018-04-06T06:20:51.008Z,3732.00
2018-04-06T06:21:50.975Z,3784.00
2018-04-06T06:22:50.976Z,3832.00
2018-04-06T06:23:50.962Z,3872.00
2018-04-06T06:24:50.891Z,3916.00
2018-04-06T06:25:50.877Z,3960.00
2018-04-06T06:26:50.953Z,3996.00
2018-04-06T06:27:50.861Z,4056.00
2018-04-06T06:28:50.868Z,4120.00
2018-04-06T06:30:50.836Z,4204.00
2018-04-06T06:31:50.830Z,4244.00
2018-04-06T06:32:50.846Z,4292.00
2018-04-06T06:33:50.824Z,4344.00
2018-04-06T06:34:50.849Z,4392.00
2018-04-06T06:35:51.160Z,4444.00
2018-04-06T06:36:50.812Z,4484.00
2018-04-06T06:37:50.767Z,4528.00
2018-04-06T06:38:50.765Z,4576.00
2018-04-06T06:39:50.733Z,4644.00
2018-04-06T06:40:50.705Z,4712.00
2018-04-06T06:41:50.689Z,4748.00
2018-04-06T06:42:50.874Z,4776.00
2018-04-06T06:43:50.662Z,4824.00
2018-04-06T06:44:50.712Z,4896.00
2018-04-06T06:45:50.851Z,4948.00
2018-04-06T06:46:50.664Z,4984.00
2018-04-06T06:47:50.661Z,5032.00
2018-04-06T06:48:50.860Z,5076.00
2018-04-06T06:49:50.815Z,5144.00
2018-04-06T06:50:50.693Z,5196.00
2018-04-06T06:51:50.781Z,5256.00
2018-04-06T06:52:50.588Z,5304.00
2018-04-06T06:53:50.524Z,5356.00
2018-04-06T06:54:50.524Z,5388.00
2018-04-06T06:55:50.508Z,5468.00
2018-04-06T06:56:50.557Z,5560.00
2018-04-06T06:57:50.457Z,5600.00
2018-04-06T06:58:50.469Z,5636.00
2018-04-06T06:59:50.474Z,5692.00
2018-04-06T07:00:50.418Z,5780.00
2018-04-06T07:01:50.357Z,5848.00
2018-04-06T07:02:50.387Z,5904.00
2018-04-06T07:03:50.428Z,5956.00
2018-04-06T07:04:50.347Z,6024.00
2018-04-06T07:05:50.325Z,6104.00
2018-04-06T07:07:50.360Z,6256.00
2018-04-06T07:08:50.550Z,6336.00
2018-04-06T07:09:50.544Z,6440.00
2018-04-06T07:10:50.310Z,6500.00
2018-04-06T07:12:50.316Z,6660.00
2018-04-06T07:13:50.279Z,6756.00
2018-04-06T07:14:50.265Z,7032.00
2018-04-06T07:15:50.238Z,7252.00
2018-04-06T07:16:50.414Z,7080.00
2018-04-06T07:17:50.211Z,7144.00
2018-04-06T07:18:50.205Z,8364.00
2018-04-06T07:19:50.194Z,26368.00
2018-04-06T07:20:50.105Z,38592.00
2018-04-06T07:21:50.803Z,45024.00
2018-04-06T07:22:50.196Z,38336.00
2018-04-06T07:23:50.116Z,51552.00
2018-04-06T07:24:50.096Z,34816.00
2018-04-06T07:25:50.046Z,39808.00
2018-04-06T07:26:50.119Z,66144.00
2018-04-06T07:27:50.124Z,65984.00
2018-04-06T07:28:50.104Z,64800.00
2018-04-06T07:29:50.040Z,67584.00
2018-04-06T07:30:50.043Z,61504.00
2018-04-06T07:31:49.967Z,64448.00
2018-04-06T07:32:50.031Z,59520.00
2018-04-06T07:33:49.998Z,63808.00
2018-04-06T07:34:49.938Z,61472.00
2018-04-06T07:35:49.980Z,60640.00
2018-04-06T07:36:49.999Z,60000.00
2018-04-06T07:37:50.035Z,63520.00
2018-04-06T07:38:49.951Z,62240.00
2018-04-06T07:39:49.917Z,65664.00
2018-04-06T07:40:50.014Z,60768.00
2018-04-06T07:41:49.983Z,62752.00
2018-04-06T07:42:49.953Z,62816.00
2018-04-06T07:43:49.887Z,61216.00
2018-04-06T07:44:49.911Z,60640.00
2018-04-06T07:45:49.882Z,61120.00
2018-04-06T07:46:49.905Z,64608.00
2018-04-06T07:47:49.854Z,60448.00
2018-04-06T07:48:49.878Z,67616.00
2018-04-06T07:50:50.391Z,65632.00
2018-04-06T07:51:49.858Z,59776.00
2018-04-06T07:52:49.853Z,66528.00
2018-04-06T07:54:49.874Z,62784.00
2018-04-06T07:55:49.856Z,67872.00
2018-04-06T07:56:49.865Z,71488.00
2018-04-06T07:58:49.826Z,76832.00
2018-04-06T07:59:49.839Z,79648.00
2018-04-06T08:00:49.838Z,81088.00
2018-04-06T08:01:49.869Z,87232.00
2018-04-06T08:02:49.862Z,74176.00
2018-04-06T08:03:49.868Z,93216.00
2018-04-06T08:05:49.837Z,84448.00
2018-04-06T08:06:49.826Z,83936.00
2018-04-06T08:07:50.026Z,85728.00
2018-04-06T08:09:49.768Z,83072.00
2018-04-06T08:10:49.813Z,95008.00
2018-04-06T08:11:50.048Z,78240.00
2018-04-06T08:12:50.015Z,86240.00
2018-04-06T08:13:50.042Z,75552.00
2018-04-06T08:14:49.802Z,84032.00
2018-04-06T08:15:49.832Z,79968.00
2018-04-06T08:16:49.771Z,76544.00
2018-04-06T08:17:49.767Z,84416.00
2018-04-06T08:18:49.987Z,69440.00
2018-04-06T08:19:49.806Z,79808.00
2018-04-06T08:20:49.841Z,80096.00
2018-04-06T08:21:49.984Z,77472.00
2018-04-06T08:22:49.783Z,81024.00
2018-04-06T08:23:49.954Z,70176.00
2018-04-06T08:24:49.782Z,83008.00
2018-04-06T08:25:49.775Z,79648.00
2018-04-06T08:26:49.842Z,85024.00
2018-04-06T08:27:49.789Z,68768.00
2018-04-06T08:29:49.829Z,82848.00
2018-04-06T08:30:49.817Z,65792.00
2018-04-06T08:31:49.777Z,79168.00
2018-04-06T08:32:49.839Z,75552.00
2018-04-06T08:33:49.783Z,72480.00
2018-04-06T08:34:49.762Z,85120.00
2018-04-06T08:35:49.787Z,70016.00
2018-04-06T08:36:49.765Z,70720.00
2018-04-06T08:37:49.786Z,77440.00
2018-04-06T08:38:49.792Z,67264.00
2018-04-06T08:39:49.821Z,79776.00
2018-04-06T08:41:49.791Z,79520.00
2018-04-06T08:42:49.737Z,80544.00
2018-04-06T08:43:49.835Z,78208.00
2018-04-06T08:44:49.767Z,85920.00
2018-04-06T08:45:49.777Z,83104.00
2018-04-06T08:46:49.819Z,82816.00
2018-04-06T08:47:49.766Z,83584.00
2018-04-06T08:48:49.815Z,85312.00
2018-04-06T08:49:49.938Z,77856.00
2018-04-06T08:50:49.840Z,89056.00
2018-04-06T08:51:49.784Z,87776.00
2018-04-06T08:52:49.770Z,79136.00
2018-04-06T08:54:49.992Z,82912.00
2018-04-06T08:55:49.841Z,83072.00
2018-04-06T08:56:49.870Z,94528.00
2018-04-06T08:57:49.799Z,82400.00
2018-04-06T08:58:49.773Z,86080.00
2018-04-06T08:59:50.015Z,79872.00
2018-04-06T09:00:49.811Z,92160.00
2018-04-06T09:01:49.807Z,83072.00
2018-04-06T09:03:49.986Z,85984.00
2018-04-06T09:04:49.798Z,79328.00
2018-04-06T09:05:50.032Z,83776.00
2018-04-06T09:06:49.865Z,89984.00
2018-04-06T09:07:50.027Z,77312.00
2018-04-06T09:08:49.851Z,88640.00
2018-04-06T09:09:51.198Z,84800.00
2018-04-06T09:10:50.026Z,84992.00
2018-04-06T09:11:49.858Z,89632.00
2018-04-06T09:12:49.818Z,84576.00
2018-04-06T09:13:49.822Z,83296.00
2018-04-06T09:14:49.849Z,88480.00
2018-04-06T09:15:49.839Z,85120.00
2018-04-06T09:16:50.026Z,83776.00
2018-04-06T09:17:49.813Z,94880.00
2018-04-06T09:18:49.866Z,80192.00
2018-04-06T09:19:49.835Z,95296.00
2018-04-06T09:20:49.818Z,88128.00
2018-04-06T09:21:49.840Z,80032.00
2018-04-06T09:22:49.874Z,87360.00
2018-04-06T09:23:49.846Z,93792.00
2018-04-06T09:24:49.827Z,88704.00
2018-04-06T09:25:49.872Z,88000.00
2018-04-06T09:26:50.070Z,97920.00
2018-04-06T09:27:50.286Z,91712.00
2018-04-06T09:28:49.860Z,91232.00
2018-04-06T09:29:49.868Z,93472.00
2018-04-06T09:30:49.851Z,93184.00
2018-04-06T09:31:49.859Z,96480.00
2018-04-06T09:32:49.821Z,89664.00
2018-04-06T09:33:49.877Z,98432.00
2018-04-06T09:34:49.845Z,96960.00
2018-04-06T09:35:49.852Z,84960.00
2018-04-06T09:36:49.850Z,102784.00
2018-04-06T09:37:49.845Z,87776.00
2018-04-06T09:38:49.859Z,99616.00
2018-04-06T09:39:49.866Z,92352.00
2018-04-06T09:40:49.868Z,101376.00
2018-04-06T09:41:49.845Z,89408.00
2018-04-06T09:42:49.859Z,82688.00
2018-04-06T09:43:49.859Z,89568.00
2018-04-06T09:44:49.870Z,88256.00
2018-04-06T09:45:49.873Z,80160.00
2018-04-06T09:46:49.873Z,102144.00
2018-04-06T09:47:49.905Z,79712.00
2018-04-06T09:48:49.929Z,91168.00
2018-04-06T09:49:50.128Z,86240.00
2018-04-06T09:50:50.088Z,85792.00
2018-04-06T09:51:49.984Z,82624.00
2018-04-06T09:52:49.921Z,82176.00
2018-04-06T09:53:49.917Z,87040.00
2018-04-06T09:54:49.976Z,75744.00
2018-04-06T09:55:49.995Z,85280.00
2018-04-06T09:56:49.983Z,84768.00
2018-04-06T09:57:49.996Z,76704.00
2018-04-06T09:58:49.992Z,100384.00
2018-04-06T09:59:49.935Z,79872.00
2018-04-06T10:00:50.127Z,89920.00
2018-04-06T10:01:49.956Z,89792.00
2018-04-06T10:02:49.989Z,83680.00
2018-04-06T10:03:49.991Z,87488.00
2018-04-06T10:04:50.039Z,88736.00
2018-04-06T10:05:49.985Z,96672.00
2018-04-06T10:06:50.004Z,89728.00
2018-04-06T10:07:49.969Z,94944.00
2018-04-06T10:08:49.976Z,99904.00
2018-04-06T10:09:50.062Z,91424.00
2018-04-06T10:10:50.100Z,98144.00
2018-04-06T10:11:50.263Z,96224.00
2018-04-06T10:12:50.016Z,102016.00
2018-04-06T10:13:50.246Z,81152.00
2018-04-06T10:15:50.214Z,96544.00
2018-04-06T10:16:50.067Z,86912.00
2018-04-06T10:17:50.109Z,97024.00
2018-04-06T10:18:50.291Z,90592.00
2018-04-06T10:19:50.125Z,84512.00
2018-04-06T10:20:50.114Z,96608.00
2018-04-06T10:21:50.120Z,88672.00
2018-04-06T10:22:50.306Z,94080.00
2018-04-06T10:23:50.046Z,89312.00
2018-04-06T10:24:50.131Z,96128.00
2018-04-06T10:25:50.118Z,89568.00
2018-04-06T10:26:50.141Z,92000.00
2018-04-06T10:27:50.142Z,93600.00
2018-04-06T10:28:50.142Z,96512.00
2018-04-06T10:29:50.134Z,98720.00
2018-04-06T10:30:50.226Z,96320.00
2018-04-06T10:31:50.136Z,99328.00
2018-04-06T10:32:50.194Z,95936.00
2018-04-06T10:33:50.145Z,92480.00
2018-04-06T10:34:50.230Z,100256.00
2018-04-06T10:35:50.168Z,86048.00
2018-04-06T10:36:50.183Z,84768.00
2018-04-06T10:37:50.188Z,93472.00
2018-04-06T10:38:50.147Z,83584.00
2018-04-06T10:39:50.256Z,76064.00
2018-04-06T10:40:50.225Z,77952.00
2018-04-06T10:41:50.200Z,68768.00
2018-04-06T10:42:50.600Z,71648.00
2018-04-06T10:43:50.450Z,71552.00
2018-04-06T10:44:50.239Z,71392.00
2018-04-06T10:45:50.437Z,68768.00
2018-04-06T10:46:50.316Z,66368.00
2018-04-06T10:47:50.267Z,70240.00
2018-04-06T10:48:50.262Z,69952.00
2018-04-06T10:49:50.260Z,76160.00
2018-04-06T10:50:50.256Z,71648.00
2018-04-06T10:51:50.464Z,74592.00
2018-04-06T10:52:50.268Z,85120.00
2018-04-06T10:53:50.295Z,85056.00
2018-04-06T10:54:50.294Z,91168.00
2018-04-06T10:55:50.314Z,81984.00
2018-04-06T10:56:50.363Z,81440.00
2018-04-06T10:57:50.269Z,82720.00
2018-04-06T10:58:50.318Z,90368.00
2018-04-06T10:59:50.325Z,85472.00
2018-04-06T11:00:50.351Z,78016.00
2018-04-06T11:01:50.287Z,79552.00
2018-04-06T11:02:50.330Z,79008.00
2018-04-06T11:03:50.314Z,76128.00
2018-04-06T11:04:50.373Z,71584.00
2018-04-06T11:05:50.388Z,65952.00
2018-04-06T11:06:50.382Z,74880.00
2018-04-06T11:07:50.328Z,72160.00
2018-04-06T11:08:50.391Z,69408.00
2018-04-06T11:09:50.368Z,65984.00
2018-04-06T11:10:50.347Z,72864.00
2018-04-06T11:11:50.392Z,72576.00
2018-04-06T11:12:50.598Z,71360.00
2018-04-06T11:13:50.406Z,68672.00
2018-04-06T11:14:50.550Z,71648.00
2018-04-06T11:15:50.352Z,75744.00
2018-04-06T11:16:50.438Z,76896.00
2018-04-06T11:17:50.440Z,74080.00
2018-04-06T11:19:50.400Z,69728.00
2018-04-06T11:20:50.436Z,72352.00
2018-04-06T11:21:50.448Z,67648.00
2018-04-06T11:22:50.449Z,68800.00
2018-04-06T11:23:50.401Z,66112.00
2018-04-06T11:24:50.400Z,65184.00
2018-04-06T11:25:50.465Z,61536.00
2018-04-06T11:26:50.478Z,59936.00
2018-04-06T11:27:50.484Z,57376.00
2018-04-06T11:28:50.419Z,61984.00
2018-04-06T11:29:50.422Z,61920.00
2018-04-06T11:30:50.430Z,60704.00
2018-04-06T11:31:50.435Z,62400.00
2018-04-06T11:32:50.437Z,59136.00
2018-04-06T11:33:50.440Z,58464.00
2018-04-06T11:34:50.445Z,55232.00
2018-04-06T11:35:50.456Z,55264.00
2018-04-06T11:36:50.453Z,52512.00
2018-04-06T11:37:50.488Z,57440.00
2018-04-06T11:38:50.459Z,54208.00
2018-04-06T11:39:50.476Z,55936.00
2018-04-06T11:40:50.468Z,54336.00
2018-04-06T11:41:50.473Z,55872.00
2018-04-06T11:42:50.495Z,58592.00
2018-04-06T11:43:50.482Z,54304.00
2018-04-06T11:44:50.480Z,53824.00
2018-04-06T11:45:50.480Z,35488.00
2018-04-06T11:46:50.489Z,19456.00
2018-04-06T11:47:50.488Z,17344.00
2018-04-06T11:48:50.529Z,16224.00
2018-04-06T11:49:50.504Z,15424.00
2018-04-06T11:50:50.501Z,15040.00
2018-04-06T11:51:50.502Z,17056.00
2018-04-06T11:52:50.515Z,31680.00
2018-04-06T11:53:50.509Z,46464.00
2018-04-06T11:55:50.533Z,49504.00
2018-04-06T11:56:50.522Z,48384.00
2018-04-06T11:57:50.524Z,50784.00
2018-04-06T11:58:50.529Z,51808.00
2018-04-06T11:59:50.599Z,48800.00
2018-04-06T12:00:50.536Z,33024.00
2018-04-06T12:01:50.542Z,19424.00
2018-04-06T12:02:50.547Z,15136.00
2018-04-06T12:03:50.548Z,14532.00
2018-04-06T12:04:50.553Z,14004.00
2018-04-06T12:05:50.555Z,13580.00
2018-04-06T12:06:50.601Z,12924.00
2018-04-06T12:07:50.608Z,12356.00
2018-04-06T12:08:50.568Z,12040.00
2018-04-06T12:09:50.572Z,11736.00
2018-04-06T12:10:50.576Z,11444.00
2018-04-06T12:11:50.580Z,11536.00
2018-04-06T12:12:50.585Z,12252.00
2018-04-06T12:13:50.659Z,16768.00
2018-04-06T12:15:50.625Z,36672.00
2018-04-06T12:16:50.606Z,37344.00
2018-04-06T12:17:50.608Z,33088.00
2018-04-06T12:18:50.608Z,23104.00
2018-04-06T12:19:50.614Z,14868.00
2018-04-06T12:20:50.617Z,13564.00
2018-04-06T12:21:50.620Z,13160.00
2018-04-06T12:22:50.674Z,12452.00
2018-04-06T12:23:50.642Z,12232.00
2018-04-06T12:24:50.634Z,11404.00
2018-04-06T12:25:50.635Z,10936.00
2018-04-06T12:26:50.641Z,10520.00
2018-04-06T12:27:50.647Z,10432.00
2018-04-06T12:28:50.713Z,10312.00
2018-04-06T12:29:50.652Z,10516.00
2018-04-06T12:30:50.755Z,11188.00
2018-04-06T12:31:50.655Z,14280.00
2018-04-06T12:32:50.729Z,22560.00
2018-04-06T12:33:50.660Z,29472.00
2018-04-06T12:34:50.667Z,31680.00
2018-04-06T12:35:50.666Z,32672.00
2018-04-06T12:36:50.678Z,32576.00
2018-04-06T12:37:50.710Z,31456.00
2018-04-06T12:38:50.681Z,29888.00
2018-04-06T12:39:50.676Z,27488.00
2018-04-06T12:40:50.679Z,21504.00
2018-04-06T12:41:50.707Z,18336.00
2018-04-06T12:42:50.767Z,18720.00
2018-04-06T12:43:50.689Z,18880.00
2018-04-06T12:44:50.689Z,19264.00
2018-04-06T12:45:50.690Z,20416.00
2018-04-06T12:46:50.692Z,23136.00
2018-04-06T12:47:50.768Z,25504.00
2018-04-06T12:48:50.711Z,32928.00